Airfield :
LOGIN :

Register | Disclaimer

   EN    FR    IT 

 










Legend :    VFR   Marginal VFR   IFR   Intensive IFR   Very Intensive IFR
Visi :
Ceiling :
>= 8 km
>= 3000ft
5 to 8 km
1000 to 3000 ft
1500m to 5 km
500 to 1000 ft
800 to 1500m
200 to 500 ft
< 800m
< 200 ft
Symbols :   Thunderstorms  Fog  Heavy snow  Heavy precipitations  Wind > 20 kt
SIGMETs :     Misc.  Thunderstorms  Icing  Turbulence  Mountain Waves  Volcanic Ashes







- Airport Elevation : 863 ft
- IATA code : ZAZ


LEZG - Zaragoza Aragon

CURRENT METAR :
  • 221800Z 09002KT 9999 FEW036 BKN065 20/15 Q1020

EXPIRED METARs :
  • 221730Z VRB02KT 9999 FEW026 BKN070 21/15 Q1020
  • 221700Z 06003KT 040V100 9999 FEW026 BKN070 21/14 Q1020
  • 221630Z 07004KT 040V110 9999 FEW026 BKN070 21/15 Q1020
  • 221600Z 07003KT 050V120 9999 FEW026 BKN070 22/16 Q1020
  • 221530Z 06003KT 330V130 9999 FEW026 BKN070 23/15 Q1020

TAF TAF LEZG
Valid from the 22 at 18:00 until the 23 at 18:00 UTC


221700Z 2218/2318 09006KT 9999 FEW025 SCT050 TX28/2314Z TN15/2306Z
PROB30
TEMPO 2303/2308 3000 BR BKN008
No reported NOTAMs for that airfield.
1 SIGMET reported for the Madrid FIR (LECM) :
 
Embedded thunderstorms
LECM SIGMET 8 VALID 221800/222000 LEVA
LECM MADRID FIR/UIR EMBD TS FCST WI N4010 W00310 - N4120 W00230 - N41 W001 - N40 W00050 - N4010 W00310 TOP FL360 MOV E 15KT NC=



MET'MAP, your aeronautical weather chart ! - Copyright ORBIFLY December 2007 - Disclaimer

ORBIFLY MET'MAP TEAM :

Programming & Development : Alexandra Zaïnal
Concept & Development : Baudouin d'Aumeries
Co-Development & Prog : Marc-Olivier Méhu
Technical & hardware support : Manuel Goepfert

Contact : metmap@orbifly.com




SOURCES & CREDITS :

   NOAA